createdAt,value
2023-02-21T00:01:47.349Z,17.20
2023-02-21T00:04:33.895Z,17.90
2023-02-21T00:07:19.193Z,16.77
2023-02-21T00:10:04.729Z,17.63
2023-02-21T00:12:50.052Z,17.48
2023-02-21T00:15:35.448Z,16.65
2023-02-21T00:18:20.670Z,16.85
2023-02-21T00:21:07.206Z,17.48
2023-02-21T00:23:53.116Z,17.40
2023-02-21T00:26:38.487Z,16.70
2023-02-21T00:29:23.915Z,16.40
2023-02-21T00:32:09.432Z,16.45
2023-02-21T00:34:57.256Z,17.08
2023-02-21T00:37:43.758Z,17.40
2023-02-21T00:40:31.065Z,16.83
2023-02-21T00:43:16.536Z,17.85
2023-02-21T00:46:01.888Z,17.83
2023-02-21T00:48:47.227Z,17.85
2023-02-21T00:51:32.531Z,17.85
2023-02-21T00:54:19.138Z,18.13
2023-02-21T00:57:04.598Z,17.33
2023-02-21T00:59:49.768Z,18.25
2023-02-21T01:02:35.141Z,16.15
2023-02-21T01:05:20.381Z,16.75
2023-02-21T01:08:05.556Z,15.90
2023-02-21T01:10:52.236Z,18.40
2023-02-21T01:13:37.343Z,18.10
2023-02-21T01:16:25.830Z,18.50
2023-02-21T01:19:10.925Z,17.17
2023-02-21T01:21:56.145Z,20.23
2023-02-21T01:24:41.343Z,17.58
2023-02-21T01:27:27.835Z,18.38
2023-02-21T01:30:13.215Z,19.27
2023-02-21T01:32:58.610Z,18.60
2023-02-21T01:35:43.728Z,19.98
2023-02-21T01:38:29.067Z,17.75
2023-02-21T01:41:14.752Z,18.73
2023-02-21T01:44:16.239Z,17.35
2023-02-21T01:47:01.679Z,19.70
2023-02-21T01:49:47.491Z,18.65
2023-02-21T01:52:32.636Z,20.75
2023-02-21T01:55:17.845Z,20.60
2023-02-21T01:58:04.847Z,19.73
2023-02-21T02:00:51.836Z,21.25
2023-02-21T02:03:39.316Z,18.63
2023-02-21T02:06:27.645Z,19.45
2023-02-21T02:09:12.981Z,19.45
2023-02-21T02:12:23.220Z,20.48
2023-02-21T02:15:19.453Z,20.40
2023-02-21T02:18:02.892Z,19.77
2023-02-21T02:20:52.801Z,20.08
2023-02-21T02:23:57.845Z,20.70
2023-02-21T02:26:49.995Z,20.95
2023-02-21T02:29:38.460Z,19.30
2023-02-21T02:32:26.292Z,21.30
2023-02-21T02:35:01.106Z,19.98
2023-02-21T02:37:33.948Z,20.17
2023-02-21T02:40:10.038Z,21.63
2023-02-21T02:42:49.966Z,19.30
2023-02-21T02:45:23.767Z,20.80
2023-02-21T02:47:56.404Z,20.15
2023-02-21T02:50:27.399Z,20.85
2023-02-21T02:52:56.547Z,20.20
2023-02-21T02:55:33.207Z,20.38
2023-02-21T02:58:02.631Z,21.52
2023-02-21T03:00:31.875Z,22.67
2023-02-21T03:03:31.812Z,21.15
2023-02-21T03:06:21.168Z,22.20
2023-02-21T03:08:58.098Z,22.35
2023-02-21T03:11:27.698Z,21.67
2023-02-21T03:14:00.512Z,23.35
2023-02-21T03:16:32.554Z,20.83
2023-02-21T03:19:05.243Z,22.50
2023-02-21T03:21:41.789Z,22.38
2023-02-21T03:24:11.538Z,21.42
2023-02-21T03:26:43.221Z,20.52
2023-02-21T03:29:12.459Z,21.75
2023-02-21T03:31:45.385Z,22.13
2023-02-21T03:34:13.162Z,21.77
2023-02-21T03:36:42.952Z,21.67
2023-02-21T03:39:10.500Z,23.27
2023-02-21T03:41:38.007Z,21.85
2023-02-21T03:44:05.770Z,22.30
2023-02-21T03:46:33.820Z,20.75
2023-02-21T03:49:01.360Z,21.77
2023-02-21T03:51:28.829Z,21.13
2023-02-21T03:53:57.649Z,23.20
2023-02-21T03:56:33.414Z,23.75
2023-02-21T03:59:07.912Z,22.92
2023-02-21T04:01:35.508Z,23.58
2023-02-21T04:04:02.985Z,23.00
2023-02-21T04:06:30.476Z,22.55
2023-02-21T04:08:59.303Z,22.10
2023-02-21T04:11:26.890Z,22.25
2023-02-21T04:13:54.474Z,23.30
2023-02-21T04:16:22.002Z,22.90
2023-02-21T04:18:49.546Z,24.00
2023-02-21T04:21:17.967Z,23.85
2023-02-21T04:23:45.500Z,23.50
2023-02-21T04:26:14.346Z,22.83
2023-02-21T04:28:41.825Z,23.67
2023-02-21T04:31:09.312Z,24.85
2023-02-21T04:33:37.009Z,24.52
2023-02-21T04:36:04.829Z,25.90
2023-02-21T04:38:32.535Z,23.08
2023-02-21T04:40:59.994Z,22.58
2023-02-21T04:43:28.815Z,23.90
2023-02-21T04:45:56.359Z,23.13
2023-02-21T04:48:23.860Z,23.10
2023-02-21T04:50:51.423Z,25.08
2023-02-21T04:53:19.061Z,24.15
2023-02-21T04:55:46.532Z,24.27
2023-02-21T04:58:14.064Z,24.42
2023-02-21T05:00:42.956Z,27.13
2023-02-21T05:03:10.522Z,24.05
2023-02-21T05:05:38.228Z,24.48
2023-02-21T05:08:05.785Z,25.58
2023-02-21T05:10:44.890Z,24.58
2023-02-21T05:13:13.179Z,26.25
2023-02-21T05:15:40.711Z,24.25
2023-02-21T05:18:09.768Z,24.67
2023-02-21T05:20:37.253Z,25.55
2023-02-21T05:23:13.445Z,26.33
2023-02-21T05:25:41.589Z,24.70
2023-02-21T05:28:09.126Z,26.45
2023-02-21T05:30:36.687Z,26.40
2023-02-21T05:33:05.392Z,25.95
2023-02-21T05:35:34.469Z,24.77
2023-02-21T05:38:02.236Z,25.58
2023-02-21T05:40:29.744Z,25.10
2023-02-21T05:42:57.354Z,25.58
2023-02-21T05:45:24.853Z,26.00
2023-02-21T05:47:56.186Z,25.23
2023-02-21T05:50:23.674Z,24.23
2023-02-21T05:52:52.521Z,27.23
2023-02-21T05:55:20.609Z,24.75
2023-02-21T05:57:48.145Z,26.55
2023-02-21T06:00:18.255Z,25.27
2023-02-21T06:02:45.878Z,24.52
2023-02-21T06:05:13.636Z,25.88
2023-02-21T06:07:41.143Z,24.85
2023-02-21T06:10:10.184Z,27.92
2023-02-21T06:12:37.903Z,24.42
2023-02-21T06:15:07.233Z,24.75
2023-02-21T06:17:34.813Z,23.23
2023-02-21T06:20:02.313Z,25.70
2023-02-21T06:22:29.819Z,25.25
2023-02-21T06:24:57.283Z,25.35
2023-02-21T06:27:26.199Z,24.58
2023-02-21T06:29:53.716Z,25.33
2023-02-21T06:32:21.237Z,24.88
2023-02-21T06:34:48.763Z,24.55
2023-02-21T06:37:16.257Z,24.80
2023-02-21T06:39:43.755Z,24.83
2023-02-21T06:42:13.913Z,24.48
2023-02-21T06:44:44.168Z,25.20
2023-02-21T06:47:11.667Z,22.63
2023-02-21T06:49:39.229Z,24.27
2023-02-21T06:52:07.187Z,24.73
2023-02-21T06:54:35.270Z,23.80
2023-02-21T06:57:02.799Z,23.83
2023-02-21T06:59:30.562Z,23.83
2023-02-21T07:01:59.491Z,23.05
2023-02-21T07:04:27.132Z,24.27
2023-02-21T07:06:55.371Z,23.15
2023-02-21T07:09:22.893Z,22.80
2023-02-21T07:11:51.414Z,24.33
2023-02-21T07:14:18.914Z,23.80
2023-02-21T07:16:46.396Z,23.77
2023-02-21T07:21:43.757Z,24.75
2023-02-21T07:24:11.295Z,23.75
2023-02-21T07:26:39.000Z,23.65
2023-02-21T07:29:07.533Z,24.83
2023-02-21T07:31:35.444Z,25.27
2023-02-21T07:34:04.159Z,24.73
2023-02-21T07:36:33.231Z,24.92
2023-02-21T07:39:00.756Z,25.27
2023-02-21T07:41:28.263Z,25.17
2023-02-21T07:43:56.191Z,25.70
2023-02-21T07:46:28.137Z,26.08
2023-02-21T07:48:55.778Z,24.52
2023-02-21T07:51:23.556Z,24.80
2023-02-21T07:53:52.562Z,25.17
2023-02-21T07:56:20.038Z,25.25
2023-02-21T07:58:47.815Z,23.50
2023-02-21T08:01:15.619Z,26.38
2023-02-21T08:03:43.518Z,25.83
2023-02-21T08:06:11.946Z,26.15
2023-02-21T08:08:39.785Z,27.15
2023-02-21T08:11:08.693Z,25.63
2023-02-21T08:13:36.204Z,26.75
2023-02-21T08:16:07.264Z,26.45
2023-02-21T08:18:34.752Z,26.38
2023-02-21T08:21:02.265Z,25.42
2023-02-21T08:23:29.868Z,26.67
2023-02-21T08:25:57.363Z,26.40
2023-02-21T08:28:26.206Z,25.48
2023-02-21T08:30:53.814Z,23.15
2023-02-21T08:33:32.529Z,25.20
2023-02-21T08:36:04.125Z,25.48
2023-02-21T08:38:31.742Z,23.75
2023-02-21T08:40:59.257Z,23.45
2023-02-21T08:43:30.303Z,22.42
2023-02-21T08:46:00.622Z,21.70
2023-02-21T08:48:28.231Z,21.90
2023-02-21T08:50:56.029Z,20.98
2023-02-21T08:53:26.288Z,18.95
2023-02-21T08:55:54.055Z,19.83
2023-02-21T08:58:49.370Z,19.67
2023-02-21T09:01:20.330Z,19.90
2023-02-21T09:03:49.385Z,17.85
2023-02-21T09:06:17.879Z,19.10
2023-02-21T09:08:55.448Z,18.30
2023-02-21T09:11:22.946Z,17.88
2023-02-21T09:13:52.984Z,17.65
2023-02-21T09:16:25.114Z,15.95
2023-02-21T09:18:56.852Z,16.85
2023-02-21T09:21:24.387Z,16.77
2023-02-21T09:23:53.939Z,16.65
2023-02-21T09:26:23.913Z,15.98
2023-02-21T09:28:53.349Z,16.90
2023-02-21T09:31:24.006Z,16.50
2023-02-21T09:33:51.552Z,15.65
2023-02-21T09:36:24.040Z,15.13
2023-02-21T09:38:53.560Z,14.52
2023-02-21T09:41:21.466Z,16.35
2023-02-21T09:43:52.008Z,15.52
2023-02-21T09:46:29.775Z,14.43
2023-02-21T09:48:57.776Z,15.98
2023-02-21T09:51:26.057Z,16.00
2023-02-21T09:53:56.964Z,15.80
2023-02-21T09:56:29.504Z,15.93
2023-02-21T09:58:58.850Z,15.95
2023-02-21T10:01:44.010Z,15.35
2023-02-21T10:04:22.468Z,14.23
2023-02-21T10:06:56.259Z,15.85
2023-02-21T10:09:31.609Z,15.45
2023-02-21T10:14:51.276Z,13.37
2023-02-21T10:17:24.456Z,14.35
2023-02-21T10:19:55.653Z,14.68
2023-02-21T10:22:27.953Z,14.25
2023-02-21T10:24:55.877Z,13.55
2023-02-21T10:27:27.379Z,14.45
2023-02-21T10:29:58.522Z,13.93
2023-02-21T10:32:28.232Z,13.77
2023-02-21T10:34:56.195Z,13.18
2023-02-21T10:37:34.259Z,11.45
2023-02-21T10:40:08.210Z,12.75
2023-02-21T10:42:40.875Z,12.93
2023-02-21T10:45:09.860Z,12.48
2023-02-21T10:47:51.922Z,13.32
2023-02-21T10:50:39.148Z,12.20
2023-02-21T10:53:07.716Z,13.13
2023-02-21T10:55:36.036Z,12.43
2023-02-21T10:58:09.921Z,12.73
2023-02-21T11:00:42.104Z,13.00
2023-02-21T11:03:23.892Z,13.95
2023-02-21T11:05:54.172Z,12.23
2023-02-21T11:08:37.631Z,13.02
2023-02-21T11:11:05.574Z,11.90
2023-02-21T11:13:35.981Z,13.27
2023-02-21T11:16:12.556Z,12.88
2023-02-21T11:18:41.454Z,11.63
2023-02-21T11:21:15.197Z,11.85
2023-02-21T11:23:46.929Z,12.05
2023-02-21T11:26:16.784Z,11.75
2023-02-21T11:28:47.906Z,12.38
2023-02-21T11:31:27.459Z,11.75
2023-02-21T11:34:00.476Z,12.30
2023-02-21T11:36:31.326Z,11.63
2023-02-21T11:39:06.004Z,11.73
2023-02-21T11:41:39.423Z,12.68
2023-02-21T11:44:29.968Z,12.68
2023-02-21T11:47:06.351Z,12.07
2023-02-21T11:49:45.146Z,11.73
2023-02-21T11:52:20.211Z,11.95
2023-02-21T11:54:47.711Z,12.40
2023-02-21T11:57:22.971Z,12.43
2023-02-21T12:02:54.822Z,12.18
2023-02-21T12:05:35.311Z,13.25
2023-02-21T12:08:23.043Z,12.32
2023-02-21T12:10:59.137Z,12.52
2023-02-21T12:13:36.274Z,12.52
2023-02-21T12:16:12.896Z,11.75
2023-02-21T12:18:57.920Z,12.23
2023-02-21T12:21:56.541Z,13.27
2023-02-21T12:24:35.712Z,12.88
2023-02-21T12:27:12.399Z,12.57
2023-02-21T12:29:57.134Z,12.90
2023-02-21T12:32:38.241Z,13.60
2023-02-21T12:35:33.980Z,14.27
2023-02-21T12:38:08.140Z,12.98
2023-02-21T12:40:49.328Z,13.43
2023-02-21T12:43:32.536Z,14.15
2023-02-21T12:46:08.590Z,13.32
2023-02-21T12:48:55.010Z,14.27
2023-02-21T12:51:26.894Z,15.27
2023-02-21T12:54:00.913Z,14.82
2023-02-21T12:56:33.968Z,14.88
2023-02-21T13:02:02.751Z,16.58
2023-02-21T13:04:42.473Z,15.35
2023-02-21T13:07:19.121Z,16.15
2023-02-21T13:09:55.448Z,16.85
2023-02-21T13:12:37.183Z,16.15
2023-02-21T13:15:17.207Z,15.65
2023-02-21T13:17:56.482Z,15.73
2023-02-21T13:20:30.983Z,15.68
2023-02-21T13:23:40.642Z,16.55
2023-02-21T13:26:33.637Z,14.85
2023-02-21T13:31:53.089Z,16.50
2023-02-21T13:34:35.941Z,16.40
2023-02-21T13:37:16.592Z,15.93
2023-02-21T13:39:47.426Z,15.70
2023-02-21T13:42:20.387Z,15.65
2023-02-21T13:44:51.700Z,16.00
2023-02-21T13:47:21.511Z,15.98
2023-02-21T13:49:51.861Z,16.13
2023-02-21T13:52:57.570Z,17.50
2023-02-21T13:55:27.249Z,16.23
2023-02-21T13:58:27.214Z,16.77
2023-02-21T14:00:57.993Z,17.23
2023-02-21T14:03:34.725Z,18.15
2023-02-21T14:06:29.352Z,17.60
2023-02-21T14:09:01.268Z,17.85
2023-02-21T14:11:32.054Z,15.77
2023-02-21T14:14:03.073Z,16.95
2023-02-21T14:16:35.525Z,16.20
2023-02-21T14:19:07.723Z,15.38
2023-02-21T14:21:37.833Z,17.88
2023-02-21T14:24:12.226Z,16.73
2023-02-21T14:26:51.673Z,17.03
2023-02-21T14:29:35.120Z,15.90
2023-02-21T14:32:35.604Z,16.73
2023-02-21T14:35:22.064Z,17.40
2023-02-21T14:37:54.513Z,16.58
2023-02-21T14:40:34.572Z,17.85
2023-02-21T14:43:17.629Z,18.38
2023-02-21T14:46:07.195Z,16.05
2023-02-21T14:48:52.401Z,16.35
2023-02-21T14:51:54.303Z,16.65
2023-02-21T14:54:57.533Z,14.25
2023-02-21T14:57:43.911Z,14.65
2023-02-21T15:00:23.776Z,14.68
2023-02-21T15:02:57.854Z,15.32
2023-02-21T15:05:31.358Z,16.50
2023-02-21T15:08:05.792Z,15.15
2023-02-21T15:10:40.502Z,15.35
2023-02-21T15:13:20.975Z,16.33
2023-02-21T15:15:48.509Z,14.60
2023-02-21T15:18:27.011Z,14.75
2023-02-21T15:21:19.396Z,16.17
2023-02-21T15:23:48.879Z,16.90
2023-02-21T15:26:19.687Z,15.77
2023-02-21T15:28:47.193Z,16.25
2023-02-21T15:31:16.457Z,17.75
2023-02-21T15:33:45.177Z,16.45
2023-02-21T15:36:19.562Z,16.85
2023-02-21T15:38:50.801Z,18.10
2023-02-21T15:41:28.619Z,17.52
2023-02-21T15:44:00.886Z,17.30
2023-02-21T15:46:35.116Z,17.15
2023-02-21T15:49:04.699Z,16.70
2023-02-21T15:51:33.973Z,17.00
2023-02-21T15:54:23.317Z,17.95
2023-02-21T15:57:07.881Z,17.33
2023-02-21T15:59:37.533Z,17.15
2023-02-21T16:02:14.605Z,18.20
2023-02-21T16:04:44.110Z,17.17
2023-02-21T16:07:21.342Z,18.08
2023-02-21T16:09:51.296Z,17.35
2023-02-21T16:12:31.998Z,17.40
2023-02-21T16:15:01.872Z,17.58
2023-02-21T16:17:33.044Z,17.02
2023-02-21T16:20:05.230Z,17.85
2023-02-21T16:22:53.953Z,18.13
2023-02-21T16:25:25.611Z,16.65
2023-02-21T16:27:54.408Z,17.20
2023-02-21T16:30:23.978Z,18.63
2023-02-21T16:32:53.389Z,17.65
2023-02-21T16:35:23.208Z,18.45
2023-02-21T16:37:54.434Z,18.35
2023-02-21T16:40:24.934Z,18.63
2023-02-21T16:42:53.943Z,18.60
2023-02-21T16:45:22.090Z,19.35
2023-02-21T16:47:51.995Z,19.45
2023-02-21T16:50:23.681Z,19.45
2023-02-21T16:52:52.513Z,18.88
2023-02-21T16:55:20.867Z,17.80
2023-02-21T16:57:49.716Z,18.73
2023-02-21T17:00:21.041Z,18.38
2023-02-21T17:02:49.173Z,17.90
2023-02-21T17:05:17.054Z,19.80
2023-02-21T17:07:44.917Z,18.58
2023-02-21T17:10:13.989Z,19.48
2023-02-21T17:12:41.697Z,19.45
2023-02-21T17:15:10.837Z,19.77
2023-02-21T17:17:38.686Z,19.92
2023-02-21T17:20:07.928Z,19.13
2023-02-21T17:22:37.332Z,17.45
2023-02-21T17:25:05.375Z,19.10
2023-02-21T17:27:34.468Z,20.15
2023-02-21T17:30:01.982Z,19.65
2023-02-21T17:32:30.625Z,19.77
2023-02-21T17:34:58.175Z,20.67
2023-02-21T17:37:25.642Z,19.33
2023-02-21T17:39:54.245Z,21.48
2023-02-21T17:42:22.194Z,21.13
2023-02-21T17:44:51.808Z,20.02
2023-02-21T17:47:19.980Z,19.42
2023-02-21T17:49:48.923Z,20.40
2023-02-21T17:52:17.140Z,20.33
2023-02-21T17:54:44.836Z,21.00
2023-02-21T17:57:12.682Z,21.92
2023-02-21T17:59:40.676Z,21.83
2023-02-21T18:02:09.485Z,21.63
2023-02-21T18:04:37.342Z,21.55
2023-02-21T18:07:04.869Z,19.80
2023-02-21T18:09:32.857Z,19.75
2023-02-21T18:12:01.576Z,18.23
2023-02-21T18:14:32.126Z,19.65
2023-02-21T18:16:59.886Z,19.58
2023-02-21T18:19:29.549Z,18.40
2023-02-21T18:21:57.105Z,20.58
2023-02-21T18:24:25.430Z,17.45
2023-02-21T18:26:52.917Z,19.08
2023-02-21T18:29:20.443Z,19.33
2023-02-21T18:31:54.066Z,19.23
2023-02-21T18:34:22.014Z,20.40
2023-02-21T18:36:52.516Z,19.05
2023-02-21T18:39:21.745Z,18.85
2023-02-21T18:41:49.822Z,19.63
2023-02-21T18:44:17.420Z,19.77
2023-02-21T18:46:50.757Z,19.58
2023-02-21T18:49:18.323Z,20.00
2023-02-21T18:51:45.830Z,19.50
2023-02-21T18:54:14.777Z,20.20
2023-02-21T18:56:48.773Z,22.73
2023-02-21T18:59:16.537Z,21.05
2023-02-21T19:01:44.282Z,20.65
2023-02-21T19:04:13.006Z,20.38
2023-02-21T19:06:40.505Z,21.63
2023-02-21T19:09:08.023Z,19.80
2023-02-21T19:11:36.897Z,19.20
2023-02-21T19:14:05.624Z,19.13
2023-02-21T19:16:33.889Z,18.65
2023-02-21T19:19:03.274Z,20.77
2023-02-21T19:21:31.833Z,19.65
2023-02-21T19:23:59.739Z,21.00
2023-02-21T19:26:30.204Z,19.30
2023-02-21T19:28:59.135Z,18.55
2023-02-21T19:31:27.290Z,18.90
2023-02-21T19:33:55.096Z,19.08
2023-02-21T19:36:23.254Z,18.92
2023-02-21T19:38:50.824Z,19.42
2023-02-21T19:41:19.980Z,19.80
2023-02-21T19:43:47.964Z,23.00
2023-02-21T19:46:25.131Z,21.20
2023-02-21T19:48:53.356Z,21.70
2023-02-21T19:51:23.696Z,21.58
2023-02-21T19:53:51.262Z,20.25
2023-02-21T19:56:19.063Z,20.58
2023-02-21T19:58:47.252Z,21.63
2023-02-21T20:01:15.208Z,21.67
2023-02-21T20:03:44.487Z,22.75
2023-02-21T20:06:12.041Z,22.42
2023-02-21T20:08:39.514Z,21.30
2023-02-21T20:11:07.320Z,19.77
2023-02-21T20:13:37.124Z,23.67
2023-02-21T20:16:04.879Z,22.15
2023-02-21T20:18:32.418Z,22.98
2023-02-21T20:21:01.241Z,21.63
2023-02-21T20:23:28.740Z,21.27
2023-02-21T20:25:56.572Z,21.48
2023-02-21T20:28:24.113Z,21.45
2023-02-21T20:30:51.817Z,21.83
2023-02-21T20:33:20.594Z,23.00
2023-02-21T20:35:48.158Z,21.40
2023-02-21T20:38:16.999Z,20.80
2023-02-21T20:40:45.833Z,22.17
2023-02-21T20:43:13.624Z,20.95
2023-02-21T20:45:41.215Z,22.00
2023-02-21T20:48:10.916Z,22.25
2023-02-21T20:50:39.420Z,22.40
2023-02-21T20:53:06.916Z,22.67
2023-02-21T20:55:37.375Z,21.20
2023-02-21T20:58:05.617Z,23.23
2023-02-21T21:00:36.506Z,21.40
2023-02-21T21:03:05.108Z,22.52
2023-02-21T21:05:33.118Z,22.52
2023-02-21T21:08:01.515Z,21.77
2023-02-21T21:10:29.152Z,21.05
2023-02-21T21:12:58.247Z,21.60
2023-02-21T21:15:26.072Z,23.05
2023-02-21T21:17:53.616Z,22.05
2023-02-21T21:20:23.072Z,21.60
2023-02-21T21:22:51.117Z,20.92
2023-02-21T21:25:18.891Z,21.95
2023-02-21T21:27:47.352Z,20.83
2023-02-21T21:30:22.432Z,21.85
2023-02-21T21:32:50.274Z,22.40
2023-02-21T21:35:19.697Z,22.02
2023-02-21T21:37:47.685Z,22.77
2023-02-21T21:40:16.678Z,23.17
2023-02-21T21:42:45.929Z,25.50
2023-02-21T21:45:19.276Z,21.42
2023-02-21T21:47:47.587Z,21.60
2023-02-21T21:50:16.471Z,22.45
2023-02-21T21:52:44.751Z,22.42
2023-02-21T21:55:18.780Z,21.17
2023-02-21T21:57:53.140Z,22.25
2023-02-21T22:00:24.601Z,21.97
2023-02-21T22:02:56.942Z,22.65
2023-02-21T22:05:25.590Z,23.17
2023-02-21T22:07:53.303Z,22.25
2023-02-21T22:10:21.921Z,23.83
2023-02-21T22:12:50.848Z,22.27
2023-02-21T22:15:20.343Z,22.58
2023-02-21T22:17:49.838Z,23.15
2023-02-21T22:20:19.698Z,23.02
2023-02-21T22:22:48.920Z,23.33
2023-02-21T22:25:17.178Z,23.35
2023-02-21T22:27:44.687Z,22.30
2023-02-21T22:30:15.221Z,22.45
2023-02-21T22:32:43.423Z,21.88
2023-02-21T22:35:18.146Z,21.85
2023-02-21T22:37:47.464Z,22.25
2023-02-21T22:40:23.805Z,23.33
2023-02-21T22:42:52.356Z,21.70
2023-02-21T22:45:21.865Z,22.13
2023-02-21T22:47:50.435Z,22.20
2023-02-21T22:50:20.938Z,23.67
2023-02-21T22:52:51.031Z,24.95
2023-02-21T22:55:18.711Z,22.15
2023-02-21T22:57:46.365Z,23.65
2023-02-21T23:00:20.029Z,22.17
2023-02-21T23:02:48.533Z,21.80
2023-02-21T23:05:19.606Z,21.20
2023-02-21T23:07:50.114Z,20.23
2023-02-21T23:10:19.516Z,20.05
2023-02-21T23:12:48.123Z,20.98
2023-02-21T23:15:18.282Z,21.42
2023-02-21T23:17:48.012Z,19.50
2023-02-21T23:20:22.025Z,20.10
2023-02-21T23:22:53.729Z,21.27
2023-02-21T23:25:25.367Z,21.95
2023-02-21T23:27:55.923Z,20.83
2023-02-21T23:30:27.496Z,21.40
2023-02-21T23:32:56.473Z,23.77
2023-02-21T23:35:24.181Z,22.23
2023-02-21T23:37:53.293Z,22.20
2023-02-21T23:40:27.866Z,23.02
2023-02-21T23:42:56.196Z,23.42
2023-02-21T23:45:26.252Z,23.42
2023-02-21T23:47:56.272Z,23.33
2023-02-21T23:50:30.328Z,23.75
2023-02-21T23:52:59.835Z,22.65
2023-02-21T23:55:29.866Z,24.77
2023-02-21T23:58:01.890Z,23.60
